sensor_id;sensor_type;location;lat;lon;timestamp;P1;durP1;ratioP1;P2;durP2;ratioP2
23046;SDS011;11691;51.462;6.902;2023-03-04T00:01:51;11.30;;;4.17;;
23046;SDS011;11691;51.462;6.902;2023-03-04T00:04:17;16.07;;;2.90;;
23046;SDS011;11691;51.462;6.902;2023-03-04T00:06:43;16.20;;;3.30;;
23046;SDS011;11691;51.462;6.902;2023-03-04T00:09:09;11.30;;;2.73;;
23046;SDS011;11691;51.462;6.902;2023-03-04T00:11:35;12.67;;;3.27;;
23046;SDS011;11691;51.462;6.902;2023-03-04T00:14:01;15.63;;;3.30;;
23046;SDS011;11691;51.462;6.902;2023-03-04T00:16:27;9.60;;;2.90;;
23046;SDS011;11691;51.462;6.902;2023-03-04T00:18:55;12.37;;;3.57;;
23046;SDS011;11691;51.462;6.902;2023-03-04T00:21:21;11.33;;;3.17;;
23046;SDS011;11691;51.462;6.902;2023-03-04T00:23:47;17.10;;;3.20;;
23046;SDS011;11691;51.462;6.902;2023-03-04T00:26:14;9.63;;;2.77;;
23046;SDS011;11691;51.462;6.902;2023-03-04T00:28:40;16.50;;;2.97;;
23046;SDS011;11691;51.462;6.902;2023-03-04T00:31:06;13.83;;;3.20;;
23046;SDS011;11691;51.462;6.902;2023-03-04T00:33:32;15.03;;;2.97;;
23046;SDS011;11691;51.462;6.902;2023-03-04T00:35:59;16.83;;;3.27;;
23046;SDS011;11691;51.462;6.902;2023-03-04T00:38:25;13.30;;;3.03;;
23046;SDS011;11691;51.462;6.902;2023-03-04T00:40:51;18.50;;;3.50;;
23046;SDS011;11691;51.462;6.902;2023-03-04T00:43:17;16.23;;;3.03;;
23046;SDS011;11691;51.462;6.902;2023-03-04T00:45:44;13.60;;;3.30;;
23046;SDS011;11691;51.462;6.902;2023-03-04T00:48:10;16.60;;;4.03;;
23046;SDS011;11691;51.462;6.902;2023-03-04T00:50:36;18.23;;;3.50;;
23046;SDS011;11691;51.462;6.902;2023-03-04T00:53:02;15.00;;;4.53;;
23046;SDS011;11691;51.462;6.902;2023-03-04T00:55:28;14.27;;;3.53;;
23046;SDS011;11691;51.462;6.902;2023-03-04T00:57:55;14.70;;;3.27;;
23046;SDS011;11691;51.462;6.902;2023-03-04T01:00:21;10.33;;;2.90;;
23046;SDS011;11691;51.462;6.902;2023-03-04T01:02:47;10.90;;;3.07;;
23046;SDS011;11691;51.462;6.902;2023-03-04T01:05:13;13.30;;;2.63;;
23046;SDS011;11691;51.462;6.902;2023-03-04T01:07:39;9.67;;;2.97;;
23046;SDS011;11691;51.462;6.902;2023-03-04T01:10:05;11.67;;;2.80;;
23046;SDS011;11691;51.462;6.902;2023-03-04T01:12:32;12.73;;;3.23;;
23046;SDS011;11691;51.462;6.902;2023-03-04T01:14:58;10.13;;;2.57;;
23046;SDS011;11691;51.462;6.902;2023-03-04T01:17:24;19.47;;;4.03;;
23046;SDS011;11691;51.462;6.902;2023-03-04T01:19:50;13.63;;;2.93;;
23046;SDS011;11691;51.462;6.902;2023-03-04T01:22:17;8.50;;;2.60;;
23046;SDS011;11691;51.462;6.902;2023-03-04T01:24:43;10.90;;;2.60;;
23046;SDS011;11691;51.462;6.902;2023-03-04T01:27:09;22.13;;;3.03;;
23046;SDS011;11691;51.462;6.902;2023-03-04T01:29:35;12.17;;;3.00;;
23046;SDS011;11691;51.462;6.902;2023-03-04T01:32:01;16.67;;;3.50;;
23046;SDS011;11691;51.462;6.902;2023-03-04T01:34:27;9.87;;;2.73;;
23046;SDS011;11691;51.462;6.902;2023-03-04T01:36:53;14.27;;;3.07;;
23046;SDS011;11691;51.462;6.902;2023-03-04T01:39:19;12.03;;;3.00;;
23046;SDS011;11691;51.462;6.902;2023-03-04T01:41:45;11.60;;;2.83;;
23046;SDS011;11691;51.462;6.902;2023-03-04T01:44:11;15.87;;;3.37;;
23046;SDS011;11691;51.462;6.902;2023-03-04T01:46:37;14.10;;;3.33;;
23046;SDS011;11691;51.462;6.902;2023-03-04T01:49:05;11.70;;;3.03;;
23046;SDS011;11691;51.462;6.902;2023-03-04T01:51:31;13.17;;;2.80;;
23046;SDS011;11691;51.462;6.902;2023-03-04T01:53:57;11.97;;;2.83;;
23046;SDS011;11691;51.462;6.902;2023-03-04T01:56:25;16.10;;;3.07;;
23046;SDS011;11691;51.462;6.902;2023-03-04T02:01:31;16.73;;;3.10;;
23046;SDS011;11691;51.462;6.902;2023-03-04T02:03:57;8.67;;;3.00;;
23046;SDS011;11691;51.462;6.902;2023-03-04T02:06:23;7.83;;;2.37;;
23046;SDS011;11691;51.462;6.902;2023-03-04T02:08:49;13.70;;;3.30;;
23046;SDS011;11691;51.462;6.902;2023-03-04T02:11:15;17.47;;;2.80;;
23046;SDS011;11691;51.462;6.902;2023-03-04T02:13:41;11.70;;;2.70;;
23046;SDS011;11691;51.462;6.902;2023-03-04T02:16:08;13.00;;;2.60;;
23046;SDS011;11691;51.462;6.902;2023-03-04T02:18:34;12.20;;;2.90;;
23046;SDS011;11691;51.462;6.902;2023-03-04T02:26:17;14.87;;;2.67;;
23046;SDS011;11691;51.462;6.902;2023-03-04T02:28:44;12.10;;;2.80;;
23046;SDS011;11691;51.462;6.902;2023-03-04T02:33:46;10.30;;;2.73;;
23046;SDS011;11691;51.462;6.902;2023-03-04T02:36:12;17.43;;;2.90;;
23046;SDS011;11691;51.462;6.902;2023-03-04T02:38:38;13.47;;;3.10;;
23046;SDS011;11691;51.462;6.902;2023-03-04T02:41:04;13.60;;;2.70;;
23046;SDS011;11691;51.462;6.902;2023-03-04T02:43:32;12.57;;;2.50;;
23046;SDS011;11691;51.462;6.902;2023-03-04T02:45:58;14.47;;;2.87;;
23046;SDS011;11691;51.462;6.902;2023-03-04T02:48:24;16.67;;;2.53;;
23046;SDS011;11691;51.462;6.902;2023-03-04T02:50:51;14.00;;;2.80;;
23046;SDS011;11691;51.462;6.902;2023-03-04T02:53:18;16.53;;;3.80;;
23046;SDS011;11691;51.462;6.902;2023-03-04T02:55:49;13.07;;;2.47;;
23046;SDS011;11691;51.462;6.902;2023-03-04T02:58:15;15.83;;;3.40;;
23046;SDS011;11691;51.462;6.902;2023-03-04T03:00:41;15.30;;;3.37;;
23046;SDS011;11691;51.462;6.902;2023-03-04T03:03:07;18.20;;;2.87;;
23046;SDS011;11691;51.462;6.902;2023-03-04T03:05:33;9.67;;;2.53;;
23046;SDS011;11691;51.462;6.902;2023-03-04T03:07:59;12.23;;;2.63;;
23046;SDS011;11691;51.462;6.902;2023-03-04T03:10:25;11.03;;;2.50;;
23046;SDS011;11691;51.462;6.902;2023-03-04T03:12:52;16.60;;;3.07;;
23046;SDS011;11691;51.462;6.902;2023-03-04T03:15:18;7.93;;;2.40;;
23046;SDS011;11691;51.462;6.902;2023-03-04T03:17:44;13.13;;;2.30;;
23046;SDS011;11691;51.462;6.902;2023-03-04T03:20:10;19.30;;;2.57;;
23046;SDS011;11691;51.462;6.902;2023-03-04T03:22:37;21.50;;;2.87;;
23046;SDS011;11691;51.462;6.902;2023-03-04T03:25:03;7.40;;;2.27;;
23046;SDS011;11691;51.462;6.902;2023-03-04T03:27:30;15.30;;;2.50;;
23046;SDS011;11691;51.462;6.902;2023-03-04T03:29:56;10.63;;;2.30;;
23046;SDS011;11691;51.462;6.902;2023-03-04T03:32:22;10.93;;;2.00;;
23046;SDS011;11691;51.462;6.902;2023-03-04T03:34:48;9.67;;;2.00;;
23046;SDS011;11691;51.462;6.902;2023-03-04T03:37:14;12.90;;;2.57;;
23046;SDS011;11691;51.462;6.902;2023-03-04T03:39:40;15.23;;;2.40;;
23046;SDS011;11691;51.462;6.902;2023-03-04T03:42:06;12.77;;;2.30;;
23046;SDS011;11691;51.462;6.902;2023-03-04T03:44:32;13.80;;;2.33;;
23046;SDS011;11691;51.462;6.902;2023-03-04T03:46:58;10.17;;;2.50;;
23046;SDS011;11691;51.462;6.902;2023-03-04T03:49:24;14.37;;;2.67;;
23046;SDS011;11691;51.462;6.902;2023-03-04T03:51:50;13.77;;;2.67;;
23046;SDS011;11691;51.462;6.902;2023-03-04T03:54:16;10.63;;;2.70;;
23046;SDS011;11691;51.462;6.902;2023-03-04T03:56:42;8.90;;;2.50;;
23046;SDS011;11691;51.462;6.902;2023-03-04T03:59:08;12.40;;;2.20;;
23046;SDS011;11691;51.462;6.902;2023-03-04T04:01:34;12.87;;;2.20;;
23046;SDS011;11691;51.462;6.902;2023-03-04T04:04:00;14.67;;;2.23;;
23046;SDS011;11691;51.462;6.902;2023-03-04T04:06:26;11.13;;;2.50;;
23046;SDS011;11691;51.462;6.902;2023-03-04T04:08:52;11.50;;;2.30;;
23046;SDS011;11691;51.462;6.902;2023-03-04T04:11:18;13.57;;;2.50;;
23046;SDS011;11691;51.462;6.902;2023-03-04T04:13:44;11.93;;;2.23;;
23046;SDS011;11691;51.462;6.902;2023-03-04T04:16:10;11.27;;;2.20;;
23046;SDS011;11691;51.462;6.902;2023-03-04T04:18:36;9.77;;;2.53;;
23046;SDS011;11691;51.462;6.902;2023-03-04T04:21:02;14.00;;;2.47;;
23046;SDS011;11691;51.462;6.902;2023-03-04T04:23:29;10.97;;;2.27;;
23046;SDS011;11691;51.462;6.902;2023-03-04T04:25:55;11.23;;;2.90;;
23046;SDS011;11691;51.462;6.902;2023-03-04T04:28:21;8.53;;;2.20;;
23046;SDS011;11691;51.462;6.902;2023-03-04T04:30:48;14.43;;;1.93;;
23046;SDS011;11691;51.462;6.902;2023-03-04T04:33:14;8.83;;;1.70;;
23046;SDS011;11691;51.462;6.902;2023-03-04T04:35:40;13.00;;;2.43;;
23046;SDS011;11691;51.462;6.902;2023-03-04T04:38:06;13.17;;;2.07;;
23046;SDS011;11691;51.462;6.902;2023-03-04T04:40:32;11.53;;;2.20;;
23046;SDS011;11691;51.462;6.902;2023-03-04T04:42:58;7.87;;;1.50;;
23046;SDS011;11691;51.462;6.902;2023-03-04T04:45:24;12.43;;;2.33;;
23046;SDS011;11691;51.462;6.902;2023-03-04T04:47:51;12.00;;;2.37;;
23046;SDS011;11691;51.462;6.902;2023-03-04T04:50:17;12.90;;;2.13;;
23046;SDS011;11691;51.462;6.902;2023-03-04T04:52:43;7.67;;;1.90;;
23046;SDS011;11691;51.462;6.902;2023-03-04T04:55:09;9.33;;;2.40;;
23046;SDS011;11691;51.462;6.902;2023-03-04T04:57:36;9.13;;;1.53;;
23046;SDS011;11691;51.462;6.902;2023-03-04T05:00:03;11.40;;;2.23;;
23046;SDS011;11691;51.462;6.902;2023-03-04T05:02:29;5.20;;;1.37;;
23046;SDS011;11691;51.462;6.902;2023-03-04T05:05:00;5.80;;;1.70;;
23046;SDS011;11691;51.462;6.902;2023-03-04T05:07:26;10.27;;;2.47;;
23046;SDS011;11691;51.462;6.902;2023-03-04T05:09:52;7.80;;;1.80;;
23046;SDS011;11691;51.462;6.902;2023-03-04T05:12:18;12.20;;;1.87;;
23046;SDS011;11691;51.462;6.902;2023-03-04T05:14:44;7.50;;;1.80;;
23046;SDS011;11691;51.462;6.902;2023-03-04T05:17:10;9.03;;;2.00;;
23046;SDS011;11691;51.462;6.902;2023-03-04T05:19:36;6.77;;;2.10;;
23046;SDS011;11691;51.462;6.902;2023-03-04T05:22:02;10.83;;;2.20;;
23046;SDS011;11691;51.462;6.902;2023-03-04T05:24:28;6.83;;;1.70;;
23046;SDS011;11691;51.462;6.902;2023-03-04T05:26:54;10.80;;;2.73;;
23046;SDS011;11691;51.462;6.902;2023-03-04T05:29:20;12.33;;;3.30;;
23046;SDS011;11691;51.462;6.902;2023-03-04T05:31:46;9.87;;;2.73;;
23046;SDS011;11691;51.462;6.902;2023-03-04T05:34:12;6.50;;;2.50;;
23046;SDS011;11691;51.462;6.902;2023-03-04T05:36:38;7.00;;;2.50;;
23046;SDS011;11691;51.462;6.902;2023-03-04T05:39:03;8.73;;;2.67;;
23046;SDS011;11691;51.462;6.902;2023-03-04T05:41:29;9.77;;;2.37;;
23046;SDS011;11691;51.462;6.902;2023-03-04T05:43:55;6.13;;;1.57;;
23046;SDS011;11691;51.462;6.902;2023-03-04T05:46:21;11.67;;;2.17;;
23046;SDS011;11691;51.462;6.902;2023-03-04T05:48:49;9.60;;;2.47;;
23046;SDS011;11691;51.462;6.902;2023-03-04T05:51:15;8.90;;;2.83;;
23046;SDS011;11691;51.462;6.902;2023-03-04T05:53:41;13.27;;;2.27;;
23046;SDS011;11691;51.462;6.902;2023-03-04T05:56:12;11.13;;;2.10;;
23046;SDS011;11691;51.462;6.902;2023-03-04T05:58:39;8.93;;;2.40;;
23046;SDS011;11691;51.462;6.902;2023-03-04T06:01:05;12.93;;;2.30;;
23046;SDS011;11691;51.462;6.902;2023-03-04T06:03:31;14.43;;;2.40;;
23046;SDS011;11691;51.462;6.902;2023-03-04T06:05:57;13.70;;;2.30;;
23046;SDS011;11691;51.462;6.902;2023-03-04T06:08:24;5.83;;;2.17;;
23046;SDS011;11691;51.462;6.902;2023-03-04T06:10:54;9.97;;;2.17;;
23046;SDS011;11691;51.462;6.902;2023-03-04T06:13:21;7.53;;;1.87;;
23046;SDS011;11691;51.462;6.902;2023-03-04T06:15:52;9.00;;;2.37;;
23046;SDS011;11691;51.462;6.902;2023-03-04T06:18:18;6.63;;;1.90;;
23046;SDS011;11691;51.462;6.902;2023-03-04T06:20:44;12.47;;;2.20;;
23046;SDS011;11691;51.462;6.902;2023-03-04T06:23:10;9.50;;;1.90;;
23046;SDS011;11691;51.462;6.902;2023-03-04T06:25:36;8.23;;;1.80;;
23046;SDS011;11691;51.462;6.902;2023-03-04T06:28:02;8.67;;;1.80;;
23046;SDS011;11691;51.462;6.902;2023-03-04T06:30:28;10.93;;;2.20;;
23046;SDS011;11691;51.462;6.902;2023-03-04T06:32:54;11.53;;;2.57;;
23046;SDS011;11691;51.462;6.902;2023-03-04T06:35:20;7.60;;;2.60;;
23046;SDS011;11691;51.462;6.902;2023-03-04T06:37:46;9.87;;;2.40;;
23046;SDS011;11691;51.462;6.902;2023-03-04T06:40:12;9.33;;;2.10;;
23046;SDS011;11691;51.462;6.902;2023-03-04T06:42:38;9.57;;;2.33;;
23046;SDS011;11691;51.462;6.902;2023-03-04T06:45:04;9.03;;;2.07;;
23046;SDS011;11691;51.462;6.902;2023-03-04T06:47:30;6.17;;;1.60;;
23046;SDS011;11691;51.462;6.902;2023-03-04T06:49:57;10.50;;;2.20;;
23046;SDS011;11691;51.462;6.902;2023-03-04T06:52:23;7.10;;;2.13;;
23046;SDS011;11691;51.462;6.902;2023-03-04T06:54:48;8.20;;;2.20;;
23046;SDS011;11691;51.462;6.902;2023-03-04T06:57:14;9.27;;;2.60;;
23046;SDS011;11691;51.462;6.902;2023-03-04T06:59:40;6.27;;;1.67;;
23046;SDS011;11691;51.462;6.902;2023-03-04T07:02:09;9.83;;;2.03;;
23046;SDS011;11691;51.462;6.902;2023-03-04T07:04:36;11.03;;;1.70;;
23046;SDS011;11691;51.462;6.902;2023-03-04T07:07:02;11.10;;;2.47;;
23046;SDS011;11691;51.462;6.902;2023-03-04T07:09:28;17.87;;;2.67;;
23046;SDS011;11691;51.462;6.902;2023-03-04T07:11:54;9.23;;;2.10;;
23046;SDS011;11691;51.462;6.902;2023-03-04T07:14:20;12.73;;;1.93;;
23046;SDS011;11691;51.462;6.902;2023-03-04T07:16:45;13.10;;;1.90;;
23046;SDS011;11691;51.462;6.902;2023-03-04T07:19:11;6.13;;;1.73;;
23046;SDS011;11691;51.462;6.902;2023-03-04T07:21:37;9.97;;;1.77;;
23046;SDS011;11691;51.462;6.902;2023-03-04T07:24:03;8.37;;;1.50;;
23046;SDS011;11691;51.462;6.902;2023-03-04T07:26:29;6.97;;;2.20;;
23046;SDS011;11691;51.462;6.902;2023-03-04T07:28:55;10.37;;;2.40;;
23046;SDS011;11691;51.462;6.902;2023-03-04T07:31:24;9.07;;;2.13;;
23046;SDS011;11691;51.462;6.902;2023-03-04T07:33:57;7.63;;;1.50;;
23046;SDS011;11691;51.462;6.902;2023-03-04T07:36:24;12.07;;;2.27;;
23046;SDS011;11691;51.462;6.902;2023-03-04T07:38:51;13.67;;;2.00;;
23046;SDS011;11691;51.462;6.902;2023-03-04T07:41:19;7.37;;;2.00;;
23046;SDS011;11691;51.462;6.902;2023-03-04T07:43:45;6.93;;;2.30;;
23046;SDS011;11691;51.462;6.902;2023-03-04T07:46:11;6.83;;;1.93;;
23046;SDS011;11691;51.462;6.902;2023-03-04T07:48:37;7.43;;;2.07;;
23046;SDS011;11691;51.462;6.902;2023-03-04T07:51:10;12.70;;;1.73;;
23046;SDS011;11691;51.462;6.902;2023-03-04T07:53:38;9.93;;;1.80;;
23046;SDS011;11691;51.462;6.902;2023-03-04T07:56:06;7.87;;;2.13;;
23046;SDS011;11691;51.462;6.902;2023-03-04T07:58:35;7.40;;;1.97;;
23046;SDS011;11691;51.462;6.902;2023-03-04T08:01:05;10.80;;;2.50;;
23046;SDS011;11691;51.462;6.902;2023-03-04T08:03:36;10.23;;;3.00;;
23046;SDS011;11691;51.462;6.902;2023-03-04T08:06:03;10.20;;;2.30;;
23046;SDS011;11691;51.462;6.902;2023-03-04T08:08:29;7.63;;;2.63;;
23046;SDS011;11691;51.462;6.902;2023-03-04T08:10:55;6.53;;;1.77;;
23046;SDS011;11691;51.462;6.902;2023-03-04T08:13:21;6.17;;;1.80;;
23046;SDS011;11691;51.462;6.902;2023-03-04T08:15:46;5.60;;;1.77;;
23046;SDS011;11691;51.462;6.902;2023-03-04T08:18:12;9.80;;;2.23;;
23046;SDS011;11691;51.462;6.902;2023-03-04T08:20:40;9.60;;;1.80;;
23046;SDS011;11691;51.462;6.902;2023-03-04T08:23:07;10.33;;;1.93;;
23046;SDS011;11691;51.462;6.902;2023-03-04T08:25:33;10.03;;;1.50;;
23046;SDS011;11691;51.462;6.902;2023-03-04T08:27:59;7.40;;;1.77;;
23046;SDS011;11691;51.462;6.902;2023-03-04T08:30:25;10.70;;;2.03;;
23046;SDS011;11691;51.462;6.902;2023-03-04T08:32:51;7.10;;;1.97;;
23046;SDS011;11691;51.462;6.902;2023-03-04T08:35:17;10.13;;;1.83;;
23046;SDS011;11691;51.462;6.902;2023-03-04T08:37:42;6.73;;;2.20;;
23046;SDS011;11691;51.462;6.902;2023-03-04T08:40:10;8.80;;;2.40;;
23046;SDS011;11691;51.462;6.902;2023-03-04T08:42:36;9.23;;;1.90;;
23046;SDS011;11691;51.462;6.902;2023-03-04T08:45:02;5.83;;;1.63;;
23046;SDS011;11691;51.462;6.902;2023-03-04T08:47:28;6.30;;;1.93;;
23046;SDS011;11691;51.462;6.902;2023-03-04T08:49:54;6.00;;;1.53;;
23046;SDS011;11691;51.462;6.902;2023-03-04T08:52:22;10.40;;;2.53;;
23046;SDS011;11691;51.462;6.902;2023-03-04T08:54:48;7.97;;;2.70;;
23046;SDS011;11691;51.462;6.902;2023-03-04T08:57:14;11.33;;;3.00;;
23046;SDS011;11691;51.462;6.902;2023-03-04T08:59:40;10.17;;;3.30;;
23046;SDS011;11691;51.462;6.902;2023-03-04T09:02:05;7.97;;;2.70;;
23046;SDS011;11691;51.462;6.902;2023-03-04T09:04:31;8.77;;;2.87;;
23046;SDS011;11691;51.462;6.902;2023-03-04T09:06:57;10.53;;;2.73;;
23046;SDS011;11691;51.462;6.902;2023-03-04T09:09:24;8.37;;;2.43;;
23046;SDS011;11691;51.462;6.902;2023-03-04T09:11:50;8.73;;;2.63;;
23046;SDS011;11691;51.462;6.902;2023-03-04T09:14:15;9.20;;;2.70;;
23046;SDS011;11691;51.462;6.902;2023-03-04T09:16:41;8.93;;;2.80;;
23046;SDS011;11691;51.462;6.902;2023-03-04T09:19:07;7.57;;;2.80;;
23046;SDS011;11691;51.462;6.902;2023-03-04T09:21:33;5.70;;;2.40;;
23046;SDS011;11691;51.462;6.902;2023-03-04T09:23:59;9.53;;;2.53;;
23046;SDS011;11691;51.462;6.902;2023-03-04T09:26:26;14.00;;;3.30;;
23046;SDS011;11691;51.462;6.902;2023-03-04T09:28:54;8.80;;;3.60;;
23046;SDS011;11691;51.462;6.902;2023-03-04T09:31:20;10.07;;;2.67;;
23046;SDS011;11691;51.462;6.902;2023-03-04T09:33:47;9.80;;;2.30;;
23046;SDS011;11691;51.462;6.902;2023-03-04T09:36:13;8.67;;;2.30;;
23046;SDS011;11691;51.462;6.902;2023-03-04T09:38:40;10.30;;;2.40;;
23046;SDS011;11691;51.462;6.902;2023-03-04T09:41:08;10.53;;;2.43;;
23046;SDS011;11691;51.462;6.902;2023-03-04T09:43:34;11.97;;;4.00;;
23046;SDS011;11691;51.462;6.902;2023-03-04T09:46:03;8.90;;;2.37;;
23046;SDS011;11691;51.462;6.902;2023-03-04T09:48:43;9.97;;;2.70;;
23046;SDS011;11691;51.462;6.902;2023-03-04T09:51:35;8.57;;;2.70;;
23046;SDS011;11691;51.462;6.902;2023-03-04T09:54:05;6.03;;;2.23;;
23046;SDS011;11691;51.462;6.902;2023-03-04T09:56:59;9.30;;;2.13;;
23046;SDS011;11691;51.462;6.902;2023-03-04T10:02:39;10.83;;;2.20;;
23046;SDS011;11691;51.462;6.902;2023-03-04T10:05:09;7.00;;;1.80;;
23046;SDS011;11691;51.462;6.902;2023-03-04T10:07:41;7.17;;;1.93;;
23046;SDS011;11691;51.462;6.902;2023-03-04T10:10:18;6.63;;;2.47;;
23046;SDS011;11691;51.462;6.902;2023-03-04T10:12:46;5.03;;;1.50;;
23046;SDS011;11691;51.462;6.902;2023-03-04T10:18:19;6.40;;;1.87;;
23046;SDS011;11691;51.462;6.902;2023-03-04T10:21:03;8.67;;;2.10;;
23046;SDS011;11691;51.462;6.902;2023-03-04T10:23:39;10.37;;;1.63;;
23046;SDS011;11691;51.462;6.902;2023-03-04T10:26:11;11.53;;;1.80;;
23046;SDS011;11691;51.462;6.902;2023-03-04T10:28:37;5.83;;;1.67;;
23046;SDS011;11691;51.462;6.902;2023-03-04T10:33:30;1.70;;;1.00;;
23046;SDS011;11691;51.462;6.902;2023-03-04T10:38:28;4.10;;;1.37;;
23046;SDS011;11691;51.462;6.902;2023-03-04T10:40:56;4.27;;;1.50;;
23046;SDS011;11691;51.462;6.902;2023-03-04T10:43:22;5.60;;;1.90;;
23046;SDS011;11691;51.462;6.902;2023-03-04T10:45:51;7.23;;;1.97;;
23046;SDS011;11691;51.462;6.902;2023-03-04T10:48:21;5.43;;;1.77;;
23046;SDS011;11691;51.462;6.902;2023-03-04T10:50:47;5.43;;;1.67;;
23046;SDS011;11691;51.462;6.902;2023-03-04T11:01:40;7.23;;;2.13;;
23046;SDS011;11691;51.462;6.902;2023-03-04T11:04:14;3.73;;;1.43;;
23046;SDS011;11691;51.462;6.902;2023-03-04T11:06:42;3.50;;;1.37;;
23046;SDS011;11691;51.462;6.902;2023-03-04T11:09:19;5.60;;;1.53;;
23046;SDS011;11691;51.462;6.902;2023-03-04T11:11:47;6.80;;;1.40;;
23046;SDS011;11691;51.462;6.902;2023-03-04T11:14:18;7.20;;;1.80;;
23046;SDS011;11691;51.462;6.902;2023-03-04T11:16:53;5.40;;;1.80;;
23046;SDS011;11691;51.462;6.902;2023-03-04T11:19:24;6.53;;;1.50;;
23046;SDS011;11691;51.462;6.902;2023-03-04T11:21:55;2.13;;;1.33;;
23046;SDS011;11691;51.462;6.902;2023-03-04T11:24:26;7.77;;;1.93;;
23046;SDS011;11691;51.462;6.902;2023-03-04T11:34:49;4.67;;;1.30;;
23046;SDS011;11691;51.462;6.902;2023-03-04T11:42:52;2.33;;;1.13;;
23046;SDS011;11691;51.462;6.902;2023-03-04T11:55:46;3.23;;;1.13;;
23046;SDS011;11691;51.462;6.902;2023-03-04T12:01:25;2.60;;;1.20;;
23046;SDS011;11691;51.462;6.902;2023-03-04T12:06:55;4.60;;;1.17;;
23046;SDS011;11691;51.462;6.902;2023-03-04T12:09:39;5.13;;;1.57;;
23046;SDS011;11691;51.462;6.902;2023-03-04T12:22:44;3.50;;;2.00;;
23046;SDS011;11691;51.462;6.902;2023-03-04T12:27:52;4.87;;;1.43;;
23046;SDS011;11691;51.462;6.902;2023-03-04T12:30:28;3.43;;;2.20;;
23046;SDS011;11691;51.462;6.902;2023-03-04T12:53:57;8.03;;;2.20;;
23046;SDS011;11691;51.462;6.902;2023-03-04T12:59:04;3.43;;;1.80;;
23046;SDS011;11691;51.462;6.902;2023-03-04T13:01:42;2.93;;;1.63;;
23046;SDS011;11691;51.462;6.902;2023-03-04T13:09:23;5.73;;;2.67;;
23046;SDS011;11691;51.462;6.902;2023-03-04T13:12:01;4.57;;;1.93;;
23046;SDS011;11691;51.462;6.902;2023-03-04T13:14:28;4.90;;;1.90;;
23046;SDS011;11691;51.462;6.902;2023-03-04T13:16:56;2.27;;;1.60;;
23046;SDS011;11691;51.462;6.902;2023-03-04T13:19:45;4.77;;;1.97;;
23046;SDS011;11691;51.462;6.902;2023-03-04T13:28:25;4.70;;;1.60;;
23046;SDS011;11691;51.462;6.902;2023-03-04T13:43:37;3.40;;;1.80;;
23046;SDS011;11691;51.462;6.902;2023-03-04T13:56:24;4.80;;;2.07;;
23046;SDS011;11691;51.462;6.902;2023-03-04T13:59:09;2.63;;;1.63;;
23046;SDS011;11691;51.462;6.902;2023-03-04T14:06:50;5.70;;;2.50;;
23046;SDS011;11691;51.462;6.902;2023-03-04T14:09:19;3.67;;;2.00;;
23046;SDS011;11691;51.462;6.902;2023-03-04T14:11:45;3.13;;;1.93;;
23046;SDS011;11691;51.462;6.902;2023-03-04T14:14:16;3.67;;;2.30;;
23046;SDS011;11691;51.462;6.902;2023-03-04T14:16:46;6.83;;;2.70;;
23046;SDS011;11691;51.462;6.902;2023-03-04T14:19:15;5.43;;;2.87;;
23046;SDS011;11691;51.462;6.902;2023-03-04T14:21:47;7.23;;;2.90;;
23046;SDS011;11691;51.462;6.902;2023-03-04T14:24:14;4.03;;;2.30;;
23046;SDS011;11691;51.462;6.902;2023-03-04T14:26:40;4.17;;;2.10;;
23046;SDS011;11691;51.462;6.902;2023-03-04T14:31:45;4.13;;;2.17;;
23046;SDS011;11691;51.462;6.902;2023-03-04T14:34:11;4.17;;;2.13;;
23046;SDS011;11691;51.462;6.902;2023-03-04T14:36:51;5.00;;;2.57;;
23046;SDS011;11691;51.462;6.902;2023-03-04T14:39:17;4.70;;;2.70;;
23046;SDS011;11691;51.462;6.902;2023-03-04T14:41:43;4.83;;;3.10;;
23046;SDS011;11691;51.462;6.902;2023-03-04T14:44:13;5.97;;;2.93;;
23046;SDS011;11691;51.462;6.902;2023-03-04T14:46:49;4.67;;;2.53;;
23046;SDS011;11691;51.462;6.902;2023-03-04T14:49:26;5.37;;;2.23;;
23046;SDS011;11691;51.462;6.902;2023-03-04T14:51:52;9.47;;;2.20;;
23046;SDS011;11691;51.462;6.902;2023-03-04T14:54:32;3.83;;;1.93;;
23046;SDS011;11691;51.462;6.902;2023-03-04T14:59:43;5.80;;;2.03;;
23046;SDS011;11691;51.462;6.902;2023-03-04T15:02:22;10.37;;;2.07;;
23046;SDS011;11691;51.462;6.902;2023-03-04T15:04:55;7.07;;;1.83;;
23046;SDS011;11691;51.462;6.902;2023-03-04T15:07:29;3.17;;;1.67;;
23046;SDS011;11691;51.462;6.902;2023-03-04T15:09:56;2.97;;;1.50;;
23046;SDS011;11691;51.462;6.902;2023-03-04T15:12:23;7.20;;;2.20;;
23046;SDS011;11691;51.462;6.902;2023-03-04T15:14:50;6.47;;;1.77;;
23046;SDS011;11691;51.462;6.902;2023-03-04T15:19:56;6.23;;;1.60;;
23046;SDS011;11691;51.462;6.902;2023-03-04T15:22:22;6.70;;;1.77;;
23046;SDS011;11691;51.462;6.902;2023-03-04T15:24:48;7.17;;;2.13;;
23046;SDS011;11691;51.462;6.902;2023-03-04T15:27:14;5.27;;;1.93;;
23046;SDS011;11691;51.462;6.902;2023-03-04T15:29:41;4.70;;;1.70;;
23046;SDS011;11691;51.462;6.902;2023-03-04T15:32:08;6.23;;;2.20;;
23046;SDS011;11691;51.462;6.902;2023-03-04T15:34:34;4.77;;;1.70;;
23046;SDS011;11691;51.462;6.902;2023-03-04T15:37:00;7.53;;;2.03;;
23046;SDS011;11691;51.462;6.902;2023-03-04T15:39:26;5.17;;;1.77;;
23046;SDS011;11691;51.462;6.902;2023-03-04T15:41:52;5.83;;;1.77;;
23046;SDS011;11691;51.462;6.902;2023-03-04T15:44:19;6.70;;;2.47;;
23046;SDS011;11691;51.462;6.902;2023-03-04T15:46:45;6.53;;;1.50;;
23046;SDS011;11691;51.462;6.902;2023-03-04T15:49:11;6.47;;;1.87;;
23046;SDS011;11691;51.462;6.902;2023-03-04T15:51:37;5.67;;;1.93;;
23046;SDS011;11691;51.462;6.902;2023-03-04T15:54:03;7.03;;;2.33;;
23046;SDS011;11691;51.462;6.902;2023-03-04T15:56:32;9.60;;;2.27;;
23046;SDS011;11691;51.462;6.902;2023-03-04T16:01:24;14.90;;;2.37;;
23046;SDS011;11691;51.462;6.902;2023-03-04T16:03:50;9.50;;;2.70;;
23046;SDS011;11691;51.462;6.902;2023-03-04T16:06:17;10.97;;;1.97;;
23046;SDS011;11691;51.462;6.902;2023-03-04T16:08:45;6.63;;;1.93;;
23046;SDS011;11691;51.462;6.902;2023-03-04T16:11:18;11.43;;;2.63;;
23046;SDS011;11691;51.462;6.902;2023-03-04T16:13:46;13.73;;;1.90;;
23046;SDS011;11691;51.462;6.902;2023-03-04T16:16:12;9.03;;;1.80;;
23046;SDS011;11691;51.462;6.902;2023-03-04T16:18:39;7.67;;;1.90;;
23046;SDS011;11691;51.462;6.902;2023-03-04T16:21:06;8.83;;;2.00;;
23046;SDS011;11691;51.462;6.902;2023-03-04T16:23:37;5.47;;;1.73;;
23046;SDS011;11691;51.462;6.902;2023-03-04T16:26:05;6.67;;;1.63;;
23046;SDS011;11691;51.462;6.902;2023-03-04T16:28:38;7.53;;;1.90;;
23046;SDS011;11691;51.462;6.902;2023-03-04T16:31:05;7.50;;;1.43;;
23046;SDS011;11691;51.462;6.902;2023-03-04T16:33:31;7.67;;;1.57;;
23046;SDS011;11691;51.462;6.902;2023-03-04T16:35:57;6.60;;;1.80;;
23046;SDS011;11691;51.462;6.902;2023-03-04T16:38:23;7.27;;;2.00;;
23046;SDS011;11691;51.462;6.902;2023-03-04T16:40:51;3.33;;;1.63;;
23046;SDS011;11691;51.462;6.902;2023-03-04T16:43:17;4.63;;;1.90;;
23046;SDS011;11691;51.462;6.902;2023-03-04T16:45:43;7.10;;;1.93;;
23046;SDS011;11691;51.462;6.902;2023-03-04T16:48:09;4.73;;;1.60;;
23046;SDS011;11691;51.462;6.902;2023-03-04T16:50:35;7.20;;;2.03;;
23046;SDS011;11691;51.462;6.902;2023-03-04T16:53:02;6.23;;;1.77;;
23046;SDS011;11691;51.462;6.902;2023-03-04T16:55:29;7.73;;;1.80;;
23046;SDS011;11691;51.462;6.902;2023-03-04T16:57:55;5.67;;;1.70;;
23046;SDS011;11691;51.462;6.902;2023-03-04T17:00:22;7.30;;;1.77;;
23046;SDS011;11691;51.462;6.902;2023-03-04T17:02:56;5.60;;;1.80;;
23046;SDS011;11691;51.462;6.902;2023-03-04T17:05:24;7.47;;;1.80;;
23046;SDS011;11691;51.462;6.902;2023-03-04T17:07:50;8.10;;;1.97;;
23046;SDS011;11691;51.462;6.902;2023-03-04T17:10:16;9.30;;;1.70;;
23046;SDS011;11691;51.462;6.902;2023-03-04T17:12:42;8.83;;;1.97;;